Humidity-temperature Sensor

Selected Measurement Type: Relative Humidity

 
Relative Humidity [%]     6 entries per hour
Showing data from 12/8/2016 (00:00:00 Z) to 12/5/2016 (00:01:00 Z)
Previous Next [ Day | 3-Days | 7-Days ]
First Last
Prev [ Day | 3-Days | 7-Days ] Next
First Last

Start Time:     :
End Time:     :     
Time (in GMT) :00 :50 :40 :30 :20 :10
Previous Next [ Day | 3-Days | 7-Days ]
First Last
Prev [ Day | 3-Days | 7-Days ] Next
First Last


123 => good data
MM => data is determined as missing
-- => data not received/configured
Back to Top Back to Top
12/8/2016 00:00 to 23:10 78.81 77.82 77.38 75.95 76.88 77.61
12/7/2016 23:00 to 22:10 -- -- -- -- -- --
12/7/2016 22:00 to 21:10 77.84 76.96 76.54 78.37 77.74 77.84
12/7/2016 21:00 to 20:10 77.86 76.75 76.50 78.52 79.80 80.01
12/7/2016 20:00 to 19:10 80.26 81.75 80.62 79.63 79.57 80.37
12/7/2016 19:00 to 18:10 80.18 79.51 80.14 80.05 81.12 80.58
12/7/2016 18:00 to 17:10 78.98 78.45 79.61 80.53 79.15 79.36
12/7/2016 17:00 to 16:10 80.68 81.31 82.22 80.91 82.41 80.64
12/7/2016 16:00 to 15:10 80.11 80.75 79.78 80.30 80.32 80.37
12/7/2016 15:00 to 14:10 82.43 81.31 83.21 82.68 84.00 84.63
12/7/2016 14:00 to 13:10 86.23 87.66 87.85 87.73 87.62 88.12
12/7/2016 13:00 to 12:10 87.47 87.26 86.63 86.78 87.54 86.80
12/7/2016 12:00 to 11:10 86.68 86.40 87.28 88.10 90.44 90.50
12/7/2016 11:00 to 10:10 89.37 88.46 89.11 89.28 88.99 87.73
12/7/2016 10:00 to 9:10 88.40 89.22 85.69 86.67 87.54 87.66
12/7/2016 09:00 to 8:10 88.76 83.00 82.72 83.65 84.85 84.13
12/7/2016 08:00 to 7:10 83.79 83.14 84.19 84.38 81.97 80.94
12/7/2016 07:00 to 6:10 81.88 81.54 80.05 80.81 80.70 80.64
12/7/2016 06:00 to 5:10 82.20 81.21 80.49 83.35 85.35 87.56
12/7/2016 05:00 to 4:10 89.09 90.16 90.69 91.05 82.03 80.53
12/7/2016 04:00 to 3:10 80.89 82.22 80.64 79.71 80.58 80.14
12/7/2016 03:00 to 2:10 81.27 83.29 88.88 89.28 84.24 82.05
12/7/2016 02:00 to 1:10 81.35 80.89 83.08 81.75 81.19 83.39
12/7/2016 01:00 to 0:10 82.76 82.79 83.16 81.25 82.13 83.71
12/7/2016 00:00 to 23:10 81.52 80.35 81.23 80.98 80.30 81.42
12/6/2016 23:00 to 22:10 81.19 80.96 82.01 83.00 83.61 83.29
12/6/2016 22:00 to 21:10 83.73 83.00 83.06 84.19 83.73 83.29
12/6/2016 21:00 to 20:10 83.84 83.20 84.09 82.89 84.59 82.41
12/6/2016 20:00 to 19:10 83.00 81.65 81.46 82.97 82.43 83.02
12/6/2016 19:00 to 18:10 81.73 81.61 80.96 82.83 83.31 83.60
12/6/2016 18:00 to 17:10 83.14 80.87 80.75 82.53 83.18 83.52
12/6/2016 17:00 to 16:10 83.69 83.44 82.91 83.33 82.72 84.53
12/6/2016 16:00 to 15:10 85.45 82.51 81.97 83.42 83.10 85.14
12/6/2016 15:00 to 14:10 84.95 82.26 83.21 81.69 82.36 81.73
12/6/2016 14:00 to 13:10 -- -- -- -- -- --
12/6/2016 13:00 to 12:10 82.43 84.32 83.16 83.71 84.99 83.79
12/6/2016 12:00 to 11:10 84.26 82.78 84.70 83.33 82.83 84.47
12/6/2016 11:00 to 10:10 84.51 85.24 83.42 83.35 85.67 85.03
12/6/2016 10:00 to 9:10 86.68 89.79 89.43 87.18 82.72 83.96
12/6/2016 09:00 to 8:10 82.64 83.90 84.22 85.08 89.74 89.34
12/6/2016 08:00 to 7:10 87.28 89.03 88.55 87.62 84.89 87.33
12/6/2016 07:00 to 6:10 87.45 87.52 86.89 87.28 89.68 86.91
12/6/2016 06:00 to 5:10 -- -- -- -- -- --
12/6/2016 05:00 to 4:10 92.23 91.97 90.84 89.32 90.67 90.23
12/6/2016 04:00 to 3:10 89.34 87.64 84.45 82.99 83.06 81.76
12/6/2016 03:00 to 2:10 81.12 80.37 81.61 81.99 82.17 82.03
12/6/2016 02:00 to 1:10 82.37 82.45 81.50 80.39 79.90 81.27
12/6/2016 01:00 to 0:10 80.24 80.77 80.24 80.30 80.37 81.69
12/6/2016 00:00 to 23:10 80.85 80.98 79.74 81.52 81.99 81.86
12/5/2016 23:00 to 22:10 81.55 82.26 82.34 83.60 81.84 80.96
12/5/2016 22:00 to 21:10 80.87 81.57 82.62 83.42 83.84 83.75
12/5/2016 21:00 to 20:10 83.40 81.36 80.68 79.80 79.99 80.53
12/5/2016 20:00 to 19:10 79.90 79.90 80.87 81.75 81.06 82.32
12/5/2016 19:00 to 18:10 81.76 77.61 78.35 78.69 78.50 77.05
12/5/2016 18:00 to 17:10 78.73 77.66 77.93 78.14 78.22 80.20
12/5/2016 17:00 to 16:10 79.59 80.89 82.49 81.15 79.19 80.49
12/5/2016 16:00 to 15:10 79.40 81.48 81.15 80.93 81.54 81.63
12/5/2016 15:00 to 14:10 82.15 80.79 82.01 83.23 84.21 83.86
12/5/2016 14:00 to 13:10 84.28 83.08 84.74 84.51 85.14 84.97
12/5/2016 13:00 to 12:10 83.50 82.76 84.82 82.26 78.29 79.19
12/5/2016 12:00 to 11:10 77.84 78.73 78.35 77.93 78.26 78.01
12/5/2016 11:00 to 10:10 78.27 78.24 79.00 80.09 78.62 78.75
12/5/2016 10:00 to 9:10 78.54 77.72 78.77 78.68 79.71 79.91
12/5/2016 09:00 to 8:10 79.84 81.10 79.71 79.91 80.24 80.28
12/5/2016 08:00 to 7:10 79.13 79.65 81.71 81.69 82.97 81.25
12/5/2016 07:00 to 6:10 82.39 82.09 82.05 81.54 80.77 81.15
12/5/2016 06:00 to 5:10 79.99 79.57 79.51 81.10 81.69 78.18
12/5/2016 05:00 to 4:10 80.09 81.00 80.56 80.70 80.89 80.47
12/5/2016 04:00 to 3:10 79.72 81.27 80.22 79.74 79.78 79.72
12/5/2016 03:00 to 2:10 78.90 78.77 80.16 79.46 79.38 79.53
12/5/2016 02:00 to 1:10 78.16 79.55 77.68 79.88 79.30 79.32
12/5/2016 01:00 to 0:10 79.69 78.08 78.71 78.87 79.57 78.05